createdAt,value
2023-04-17T00:02:03.272Z,95.85
2023-04-17T00:04:49.119Z,98.12
2023-04-17T00:07:34.497Z,100.00
2023-04-17T00:10:18.583Z,98.36
2023-04-17T00:13:04.134Z,97.38
2023-04-17T00:15:48.087Z,95.40
2023-04-17T00:18:32.241Z,95.06
2023-04-17T00:21:17.505Z,95.60
2023-04-17T00:24:01.620Z,95.74
2023-04-17T00:26:45.780Z,93.98
2023-04-17T00:29:29.752Z,95.20
2023-04-17T00:32:13.579Z,94.73
2023-04-17T00:34:57.498Z,94.11
2023-04-17T00:37:42.720Z,95.51
2023-04-17T00:40:26.963Z,94.39
2023-04-17T00:43:10.877Z,94.04
2023-04-17T00:45:55.441Z,93.80
2023-04-17T00:48:41.054Z,93.71
2023-04-17T00:51:25.133Z,94.63
2023-04-17T00:54:11.271Z,97.99
2023-04-17T00:56:57.801Z,99.61
2023-04-17T00:59:44.549Z,100.00
2023-04-17T01:02:28.628Z,100.00
2023-04-17T01:05:12.791Z,100.00
2023-04-17T01:07:58.979Z,100.00
2023-04-17T01:10:44.558Z,100.00
2023-04-17T01:13:28.514Z,100.00
2023-04-17T01:16:13.029Z,99.81
2023-04-17T01:18:57.086Z,100.00
2023-04-17T01:21:42.699Z,99.09
2023-04-17T01:24:27.977Z,98.45
2023-04-17T01:27:13.856Z,98.08
2023-04-17T01:30:00.409Z,96.23
2023-04-17T01:32:48.522Z,98.49
2023-04-17T01:35:32.480Z,99.07
2023-04-17T01:38:16.351Z,99.72
2023-04-17T01:41:08.336Z,99.62
2023-04-17T01:43:52.303Z,100.00
2023-04-17T01:46:36.759Z,100.00
2023-04-17T01:49:20.911Z,100.00
2023-04-17T01:52:05.139Z,100.00
2023-04-17T01:54:49.117Z,100.00
2023-04-17T01:57:36.473Z,100.00
2023-04-17T02:00:22.905Z,100.00
2023-04-17T02:03:07.182Z,100.00
2023-04-17T02:05:51.366Z,100.00
2023-04-17T02:08:35.804Z,100.00
2023-04-17T02:11:20.959Z,100.00
2023-04-17T02:14:09.748Z,100.00
2023-04-17T02:16:53.916Z,100.00
2023-04-17T02:19:37.823Z,100.00
2023-04-17T02:22:22.126Z,100.00
2023-04-17T02:25:06.649Z,100.00
2023-04-17T02:27:50.843Z,99.49
2023-04-17T02:30:36.009Z,99.85
2023-04-17T02:33:20.125Z,99.20
2023-04-17T02:36:04.990Z,100.00
2023-04-17T02:38:54.839Z,100.00
2023-04-17T02:41:38.892Z,100.00
2023-04-17T02:44:23.328Z,100.00
2023-04-17T02:47:09.026Z,100.00
2023-04-17T02:49:53.057Z,100.00
2023-04-17T02:52:37.113Z,100.00
2023-04-17T02:55:22.445Z,100.00
2023-04-17T02:58:06.447Z,100.00
2023-04-17T03:00:50.588Z,100.00
2023-04-17T03:03:42.195Z,100.00
2023-04-17T03:06:30.326Z,100.00
2023-04-17T03:09:15.083Z,100.00
2023-04-17T03:11:59.026Z,98.76
2023-04-17T03:14:44.024Z,98.73
2023-04-17T03:17:28.075Z,99.39
2023-04-17T03:20:16.002Z,100.00
2023-04-17T03:23:01.380Z,98.99
2023-04-17T03:25:45.445Z,99.14
2023-04-17T03:28:31.411Z,97.46
2023-04-17T03:31:15.585Z,97.79
2023-04-17T03:33:59.641Z,96.11
2023-04-17T03:36:46.717Z,98.36
2023-04-17T03:39:32.115Z,97.89
2023-04-17T03:42:17.952Z,97.83
2023-04-17T03:45:03.424Z,97.13
2023-04-17T03:47:50.459Z,97.85
2023-04-17T03:50:35.217Z,97.57
2023-04-17T03:53:21.012Z,97.88
2023-04-17T03:56:06.824Z,96.80
2023-04-17T03:58:54.882Z,97.56
2023-04-17T04:01:39.696Z,98.73
2023-04-17T04:04:31.516Z,99.33
2023-04-17T04:07:23.051Z,99.29
2023-04-17T04:10:10.651Z,100.00
2023-04-17T04:12:54.788Z,98.31
2023-04-17T04:15:38.966Z,98.41
2023-04-17T04:18:23.252Z,98.47
2023-04-17T04:21:07.443Z,98.24
2023-04-17T04:23:56.230Z,98.78
2023-04-17T04:26:42.438Z,98.59
2023-04-17T04:29:26.424Z,98.36
2023-04-17T04:32:15.988Z,99.98
2023-04-17T04:35:03.209Z,99.73
2023-04-17T04:37:47.662Z,100.00
2023-04-17T04:40:36.127Z,100.00
2023-04-17T04:43:22.575Z,100.00
2023-04-17T04:46:11.402Z,100.00
2023-04-17T04:49:00.335Z,100.00
2023-04-17T04:51:44.544Z,100.00
2023-04-17T04:54:29.648Z,100.00
2023-04-17T04:57:16.925Z,100.00
2023-04-17T05:00:09.103Z,100.00
2023-04-17T05:02:56.851Z,100.00
2023-04-17T05:05:43.536Z,100.00
2023-04-17T05:08:30.618Z,99.74
2023-04-17T05:11:25.373Z,98.99
2023-04-17T05:14:09.702Z,97.09
2023-04-17T05:16:57.083Z,96.79
2023-04-17T05:19:41.725Z,97.31
2023-04-17T05:22:28.381Z,97.31
2023-04-17T05:25:24.952Z,97.78
2023-04-17T05:28:12.634Z,96.18
2023-04-17T05:30:58.881Z,95.58
2023-04-17T05:33:50.819Z,96.56
2023-04-17T05:36:34.628Z,96.46
2023-04-17T05:39:21.683Z,95.53
2023-04-17T05:42:06.020Z,94.82
2023-04-17T05:44:50.237Z,93.27
2023-04-17T05:47:35.166Z,92.01
2023-04-17T05:50:20.701Z,94.55
2023-04-17T05:53:05.012Z,97.19
2023-04-17T05:55:53.572Z,100.00
2023-04-17T05:58:38.573Z,100.00
2023-04-17T06:01:23.560Z,100.00
2023-04-17T06:04:10.822Z,99.09
2023-04-17T06:06:56.693Z,99.29
2023-04-17T06:09:41.448Z,100.00
2023-04-17T06:12:27.049Z,100.00
2023-04-17T06:15:12.441Z,100.00
2023-04-17T06:17:56.989Z,100.00
2023-04-17T06:20:42.372Z,100.00
2023-04-17T06:23:27.996Z,100.00
2023-04-17T06:26:12.412Z,100.00
2023-04-17T06:28:56.845Z,100.00
2023-04-17T06:31:42.225Z,100.00
2023-04-17T06:34:26.703Z,100.00
2023-04-17T06:37:11.567Z,100.00
2023-04-17T06:39:57.234Z,100.00
2023-04-17T06:42:41.399Z,100.00
2023-04-17T06:45:29.848Z,100.00
2023-04-17T06:48:13.933Z,100.00
2023-04-17T06:50:58.290Z,100.00
2023-04-17T06:53:42.244Z,100.00
2023-04-17T06:56:27.632Z,100.00
2023-04-17T06:59:12.131Z,100.00
2023-04-17T07:01:56.316Z,100.00
2023-04-17T07:04:40.560Z,100.00
2023-04-17T07:07:24.491Z,100.00
2023-04-17T07:10:09.188Z,100.00
2023-04-17T07:12:55.390Z,100.00
2023-04-17T07:15:39.180Z,100.00
2023-04-17T07:18:23.533Z,100.00
2023-04-17T07:21:07.679Z,100.00
2023-04-17T07:23:51.690Z,100.00
2023-04-17T07:26:37.077Z,100.00
2023-04-17T07:29:22.531Z,100.00
2023-04-17T07:32:07.438Z,100.00
2023-04-17T07:34:51.814Z,100.00
2023-04-17T07:37:37.313Z,100.00
2023-04-17T07:40:21.483Z,100.00
2023-04-17T07:43:05.496Z,100.00
2023-04-17T07:45:51.207Z,100.00
2023-04-17T07:48:35.206Z,100.00
2023-04-17T07:51:19.426Z,100.00
2023-04-17T07:54:03.739Z,100.00
2023-04-17T07:56:49.534Z,100.00
2023-04-17T07:59:33.442Z,100.00
2023-04-17T08:02:20.704Z,100.00
2023-04-17T08:05:07.149Z,100.00
2023-04-17T08:07:51.385Z,100.00
2023-04-17T08:10:35.650Z,100.00
2023-04-17T08:13:19.634Z,100.00
2023-04-17T08:16:04.358Z,100.00
2023-04-17T08:18:49.906Z,100.00
2023-04-17T08:21:34.266Z,98.66
2023-04-17T08:24:19.944Z,100.00
2023-04-17T08:27:05.341Z,100.00
2023-04-17T08:29:49.326Z,100.00
2023-04-17T08:32:39.177Z,100.00
2023-04-17T08:35:25.513Z,100.00
2023-04-17T08:38:10.521Z,100.00
2023-04-17T08:40:59.116Z,100.00
2023-04-17T08:43:44.732Z,100.00
2023-04-17T08:46:30.566Z,100.00
2023-04-17T08:49:14.787Z,100.00
2023-04-17T08:52:03.424Z,100.00
2023-04-17T08:54:49.850Z,100.00
2023-04-17T08:57:35.143Z,100.00
2023-04-17T09:00:25.574Z,100.00
2023-04-17T09:03:12.631Z,100.00
2023-04-17T09:05:58.790Z,100.00
2023-04-17T09:08:57.941Z,100.00
2023-04-17T09:11:41.868Z,100.00
2023-04-17T09:14:32.589Z,100.00
2023-04-17T09:17:18.419Z,100.00
2023-04-17T09:20:07.423Z,100.00
2023-04-17T09:23:01.145Z,100.00
2023-04-17T09:25:46.939Z,100.00
2023-04-17T09:28:35.583Z,100.00
2023-04-17T09:31:27.538Z,100.00
2023-04-17T09:34:13.063Z,100.00
2023-04-17T09:36:57.048Z,100.00
2023-04-17T09:39:56.655Z,100.00
2023-04-17T09:42:55.431Z,100.00
2023-04-17T09:45:42.676Z,100.00
2023-04-17T09:48:27.440Z,100.00
2023-04-17T09:51:12.020Z,100.00
2023-04-17T09:53:57.783Z,100.00
2023-04-17T09:56:42.335Z,100.00
2023-04-17T09:59:28.920Z,100.00
2023-04-17T10:02:15.939Z,100.00
2023-04-17T10:05:02.788Z,100.00
2023-04-17T10:07:48.019Z,100.00
2023-04-17T10:10:34.206Z,100.00
2023-04-17T10:13:21.293Z,100.00
2023-04-17T10:16:07.543Z,100.00
2023-04-17T10:19:26.452Z,100.00
2023-04-17T10:22:34.241Z,100.00
2023-04-17T10:25:20.125Z,100.00
2023-04-17T10:28:04.699Z,100.00
2023-04-17T10:30:54.721Z,100.00
2023-04-17T10:33:50.006Z,100.00
2023-04-17T10:36:52.612Z,100.00
2023-04-17T10:39:54.360Z,100.00
2023-04-17T10:42:38.386Z,100.00
2023-04-17T10:45:22.669Z,100.00
2023-04-17T10:48:06.767Z,100.00
2023-04-17T10:50:52.213Z,100.00
2023-04-17T10:53:44.384Z,100.00
2023-04-17T10:56:30.906Z,100.00
2023-04-17T10:59:16.982Z,100.00
2023-04-17T11:02:06.855Z,100.00
2023-04-17T11:05:07.086Z,100.00
2023-04-17T11:07:52.865Z,100.00
2023-04-17T11:10:38.303Z,100.00
2023-04-17T11:13:22.619Z,100.00
2023-04-17T11:16:07.497Z,100.00
2023-04-17T11:18:52.265Z,100.00
2023-04-17T11:21:40.939Z,100.00
2023-04-17T11:24:27.188Z,100.00
2023-04-17T11:27:11.347Z,100.00
2023-04-17T11:29:55.236Z,100.00
2023-04-17T11:32:39.127Z,100.00
2023-04-17T11:35:28.729Z,100.00
2023-04-17T11:38:14.792Z,100.00
2023-04-17T11:41:01.369Z,100.00
2023-04-17T11:43:46.899Z,100.00
2023-04-17T11:46:31.002Z,97.90
2023-04-17T11:49:14.967Z,96.37
2023-04-17T11:52:02.159Z,92.03
2023-04-17T11:54:46.080Z,88.95
2023-04-17T11:57:42.315Z,89.26
2023-04-17T12:00:29.973Z,84.24
2023-04-17T12:03:33.969Z,88.96
2023-04-17T12:06:18.411Z,86.55
2023-04-17T12:09:03.025Z,86.22
2023-04-17T12:11:46.802Z,90.49
2023-04-17T12:14:32.429Z,89.55
2023-04-17T12:17:16.380Z,91.90
2023-04-17T12:20:03.418Z,92.09
2023-04-17T12:22:48.706Z,87.91
2023-04-17T12:25:33.085Z,87.55
2023-04-17T12:28:16.924Z,88.94
2023-04-17T12:31:02.059Z,90.71
2023-04-17T12:33:45.875Z,90.37
2023-04-17T12:36:29.715Z,87.39
2023-04-17T12:39:14.129Z,86.44
2023-04-17T12:41:57.995Z,84.09
2023-04-17T12:44:41.917Z,83.19
2023-04-17T12:47:27.452Z,85.56
2023-04-17T12:50:12.742Z,85.04
2023-04-17T12:52:56.641Z,83.51
2023-04-17T12:55:41.332Z,82.71
2023-04-17T12:58:25.576Z,83.52
2023-04-17T13:01:09.399Z,85.46
2023-04-17T13:03:55.013Z,82.30
2023-04-17T13:06:39.137Z,82.17
2023-04-17T13:09:22.902Z,83.97
2023-04-17T13:12:07.484Z,84.93
2023-04-17T13:14:51.420Z,84.66
2023-04-17T13:17:35.893Z,85.53
2023-04-17T13:20:21.466Z,86.67
2023-04-17T13:23:05.399Z,85.83
2023-04-17T13:25:49.788Z,87.31
2023-04-17T13:28:33.936Z,87.77
2023-04-17T13:31:18.172Z,87.11
2023-04-17T13:34:02.920Z,85.97
2023-04-17T13:36:49.040Z,86.55
2023-04-17T13:39:33.027Z,84.80
2023-04-17T13:42:17.671Z,86.40
2023-04-17T13:45:01.733Z,85.35
2023-04-17T13:47:49.368Z,87.95
2023-04-17T13:50:33.353Z,89.97
2023-04-17T13:53:18.862Z,89.62
2023-04-17T13:56:02.850Z,86.97
2023-04-17T13:58:48.055Z,84.51
2023-04-17T14:01:32.111Z,88.58
2023-04-17T14:04:16.376Z,90.65
2023-04-17T14:07:00.754Z,90.45
2023-04-17T14:09:46.348Z,88.91
2023-04-17T14:12:30.501Z,88.86
2023-04-17T14:15:14.565Z,89.45
2023-04-17T14:17:59.368Z,90.11
2023-04-17T14:20:43.522Z,88.45
2023-04-17T14:23:27.646Z,90.28
2023-04-17T14:26:13.516Z,90.57
2023-04-17T14:28:57.642Z,91.64
2023-04-17T14:31:41.786Z,92.34
2023-04-17T14:34:26.015Z,92.44
2023-04-17T14:37:10.099Z,90.31
2023-04-17T14:39:54.327Z,90.38
2023-04-17T14:42:51.295Z,88.80
2023-04-17T14:45:38.049Z,89.60
2023-04-17T14:48:23.803Z,88.87
2023-04-17T14:51:12.604Z,87.99
2023-04-17T14:53:56.635Z,87.40
2023-04-17T14:56:41.209Z,88.72
2023-04-17T14:59:28.086Z,85.96
2023-04-17T15:04:56.743Z,91.05
2023-04-17T15:07:40.720Z,90.13
2023-04-17T15:10:24.867Z,90.17
2023-04-17T15:13:08.914Z,91.61
2023-04-17T15:15:55.307Z,90.71
2023-04-17T15:18:39.963Z,91.17
2023-04-17T15:21:24.133Z,91.77
2023-04-17T15:24:08.561Z,91.87
2023-04-17T15:26:52.683Z,89.71
2023-04-17T15:29:36.729Z,91.73
2023-04-17T15:32:22.330Z,90.75
2023-04-17T15:35:07.314Z,92.27
2023-04-17T15:37:51.445Z,92.47
2023-04-17T15:40:35.714Z,93.03
2023-04-17T15:43:20.071Z,94.26
2023-04-17T15:46:05.040Z,94.11
2023-04-17T15:49:04.995Z,94.63
2023-04-17T15:51:52.252Z,95.29
2023-04-17T15:54:36.439Z,95.91
2023-04-17T15:57:20.569Z,95.51
2023-04-17T16:00:05.197Z,94.81
2023-04-17T16:02:54.745Z,93.96
2023-04-17T16:05:40.318Z,95.52
2023-04-17T16:08:24.385Z,96.03
2023-04-17T16:11:08.589Z,95.85
2023-04-17T16:13:52.695Z,95.66
2023-04-17T16:16:36.752Z,95.16
2023-04-17T16:19:20.819Z,93.77
2023-04-17T16:22:06.343Z,93.54
2023-04-17T16:24:50.274Z,95.46
2023-04-17T16:27:35.019Z,95.43
2023-04-17T16:30:19.196Z,97.00
2023-04-17T16:33:03.281Z,95.96
2023-04-17T16:35:47.315Z,94.03
2023-04-17T16:38:32.760Z,94.11
2023-04-17T16:41:16.590Z,94.72
2023-04-17T16:44:00.361Z,91.36
2023-04-17T16:47:05.591Z,92.78
2023-04-17T16:49:48.085Z,97.71
2023-04-17T16:52:32.084Z,98.59
2023-04-17T16:55:17.736Z,100.00
2023-04-17T16:58:04.406Z,100.00
2023-04-17T17:00:49.262Z,100.00
2023-04-17T17:03:39.118Z,100.00
2023-04-17T17:06:23.060Z,100.00
2023-04-17T17:09:06.914Z,100.00
2023-04-17T17:11:52.427Z,100.00
2023-04-17T17:14:36.320Z,100.00
2023-04-17T17:17:20.816Z,100.00
2023-04-17T17:20:04.987Z,98.93
2023-04-17T17:22:49.598Z,99.55
2023-04-17T17:25:33.573Z,97.47
2023-04-17T17:28:18.937Z,97.83
2023-04-17T17:31:03.894Z,96.82
2023-04-17T17:33:50.133Z,95.82
2023-04-17T17:36:34.216Z,93.89
2023-04-17T17:39:18.057Z,93.36
2023-04-17T17:42:04.333Z,96.23
2023-04-17T17:44:49.516Z,97.40
2023-04-17T17:47:33.558Z,99.39
2023-04-17T17:50:17.852Z,95.12
2023-04-17T17:53:01.918Z,95.21
2023-04-17T17:55:52.116Z,95.94
2023-04-17T17:58:36.162Z,96.84
2023-04-17T18:01:22.760Z,95.56
2023-04-17T18:04:07.404Z,95.21
2023-04-17T18:06:51.726Z,98.87
2023-04-17T18:09:36.449Z,100.00
2023-04-17T18:12:20.415Z,100.00
2023-04-17T18:15:04.336Z,97.71
2023-04-17T18:17:49.980Z,98.96
2023-04-17T18:20:38.697Z,98.63
2023-04-17T18:23:22.602Z,95.31
2023-04-17T18:26:06.656Z,97.47
2023-04-17T18:28:51.080Z,98.45
2023-04-17T18:31:35.065Z,97.42
2023-04-17T18:34:23.375Z,95.39
2023-04-17T18:37:07.847Z,97.02
2023-04-17T18:39:53.164Z,96.74
2023-04-17T18:42:37.072Z,96.33
2023-04-17T18:45:20.955Z,95.25
2023-04-17T18:48:05.074Z,95.13
2023-04-17T18:50:51.168Z,94.86
2023-04-17T18:53:35.172Z,96.74
2023-04-17T18:56:19.249Z,97.43
2023-04-17T18:59:03.653Z,98.72
2023-04-17T19:01:48.493Z,100.00
2023-04-17T19:04:32.855Z,99.21
2023-04-17T19:07:19.129Z,97.88
2023-04-17T19:10:05.531Z,96.59
2023-04-17T19:12:49.661Z,98.87
2023-04-17T19:15:33.944Z,100.00
2023-04-17T19:18:18.184Z,100.00
2023-04-17T19:21:02.280Z,100.00
2023-04-17T19:23:48.172Z,100.00
2023-04-17T19:26:32.505Z,100.00
2023-04-17T19:29:17.442Z,99.77
2023-04-17T19:32:01.715Z,98.81
2023-04-17T19:34:46.405Z,98.05
2023-04-17T19:37:30.400Z,95.39
2023-04-17T19:40:24.387Z,93.55
2023-04-17T19:43:09.649Z,94.01
2023-04-17T19:45:53.695Z,96.00
2023-04-17T19:48:38.507Z,97.37
2023-04-17T19:51:23.554Z,97.44
2023-04-17T19:54:08.091Z,95.59
2023-04-17T19:56:53.827Z,95.93
2023-04-17T19:59:38.103Z,97.58
2023-04-17T20:02:22.448Z,96.56
2023-04-17T20:05:07.192Z,96.61
2023-04-17T20:07:51.165Z,97.65
2023-04-17T20:10:35.108Z,96.50
2023-04-17T20:13:20.569Z,94.78
2023-04-17T20:16:04.395Z,96.20
2023-04-17T20:18:49.788Z,94.56
2023-04-17T20:21:33.685Z,95.40
2023-04-17T20:24:17.551Z,95.24
2023-04-17T20:27:02.002Z,94.27
2023-04-17T20:29:47.289Z,93.46
2023-04-17T20:32:31.199Z,94.37
2023-04-17T20:35:15.199Z,91.96
2023-04-17T20:37:59.105Z,93.31
2023-04-17T20:40:43.430Z,92.22
2023-04-17T20:43:27.415Z,93.34
2023-04-17T20:46:12.809Z,95.81
2023-04-17T20:48:56.684Z,97.16
2023-04-17T20:51:40.744Z,95.94
2023-04-17T20:54:26.339Z,96.06
2023-04-17T20:57:10.465Z,96.03
2023-04-17T20:59:54.342Z,95.07
2023-04-17T21:02:39.576Z,94.42
2023-04-17T21:05:23.603Z,95.38
2023-04-17T21:08:07.732Z,96.16
2023-04-17T21:10:51.624Z,96.28
2023-04-17T21:13:35.903Z,96.25
2023-04-17T21:16:19.686Z,95.13
2023-04-17T21:19:04.837Z,96.58
2023-04-17T21:21:48.627Z,95.94
2023-04-17T21:24:32.423Z,96.44
2023-04-17T21:27:16.390Z,98.12
2023-04-17T21:30:00.234Z,96.61
2023-04-17T21:32:44.486Z,97.01
2023-04-17T21:35:29.761Z,97.23
2023-04-17T21:38:13.821Z,94.83
2023-04-17T21:40:57.997Z,95.54
2023-04-17T21:43:41.862Z,94.62
2023-04-17T21:46:25.868Z,95.00
2023-04-17T21:49:09.665Z,96.13
2023-04-17T21:51:54.975Z,96.01
2023-04-17T21:54:38.999Z,95.25
2023-04-17T21:57:22.909Z,96.59
2023-04-17T22:00:11.636Z,97.41
2023-04-17T22:02:55.996Z,96.58
2023-04-17T22:05:40.206Z,96.59
2023-04-17T22:08:26.240Z,97.51
2023-04-17T22:11:10.339Z,96.31
2023-04-17T22:13:54.407Z,97.39
2023-04-17T22:16:38.493Z,99.45
2023-04-17T22:19:22.476Z,98.25
2023-04-17T22:22:06.453Z,98.40
2023-04-17T22:24:51.897Z,99.21
2023-04-17T22:27:35.845Z,98.01
2023-04-17T22:30:19.845Z,98.12
2023-04-17T22:33:03.852Z,97.21
2023-04-17T22:35:47.671Z,99.01
2023-04-17T22:38:31.597Z,98.50
2023-04-17T22:41:16.985Z,98.56
2023-04-17T22:44:00.759Z,97.53
2023-04-17T22:46:44.849Z,97.54
2023-04-17T22:49:28.722Z,98.13
2023-04-17T22:52:12.583Z,99.91
2023-04-17T22:54:56.535Z,98.80
2023-04-17T22:57:41.903Z,100.00
2023-04-17T23:00:26.095Z,100.00
2023-04-17T23:03:10.048Z,99.69
2023-04-17T23:05:54.651Z,100.00
2023-04-17T23:08:38.633Z,100.00
2023-04-17T23:11:22.529Z,98.29
2023-04-17T23:14:07.924Z,100.00
2023-04-17T23:16:52.906Z,100.00
2023-04-17T23:19:36.733Z,99.97
2023-04-17T23:22:20.589Z,99.97
2023-04-17T23:25:04.838Z,98.27
2023-04-17T23:27:48.791Z,97.93
2023-04-17T23:30:34.108Z,97.92
2023-04-17T23:33:17.943Z,98.46
2023-04-17T23:36:01.772Z,100.00
2023-04-17T23:38:45.698Z,100.00
2023-04-17T23:41:29.728Z,99.23
2023-04-17T23:44:13.988Z,97.52
2023-04-17T23:47:00.059Z,97.26
2023-04-17T23:49:44.096Z,96.06
2023-04-17T23:52:28.682Z,94.97
2023-04-17T23:55:12.556Z,95.82
2023-04-17T23:57:57.067Z,98.21
